sensor_id;sensor_type;location;lat;lon;timestamp;pressure;altitude;pressure_sealevel;temperature;humidity
70304;BME280;57712;48.752;11.348;2022-11-22T00:00:19;95724.13;;;2.29;100.00
70304;BME280;57712;48.752;11.348;2022-11-22T00:02:46;95721.91;;;2.48;100.00
70304;BME280;57712;48.752;11.348;2022-11-22T00:05:12;95708.69;;;2.30;100.00
70304;BME280;57712;48.752;11.348;2022-11-22T00:07:39;95736.59;;;2.47;100.00
70304;BME280;57712;48.752;11.348;2022-11-22T00:10:08;95731.91;;;2.51;100.00
70304;BME280;57712;48.752;11.348;2022-11-22T00:12:36;95722.66;;;2.48;100.00
70304;BME280;57712;48.752;11.348;2022-11-22T00:15:03;95711.75;;;2.55;100.00
70304;BME280;57712;48.752;11.348;2022-11-22T00:17:31;95717.06;;;2.63;100.00
70304;BME280;57712;48.752;11.348;2022-11-22T00:19:57;95719.34;;;2.64;100.00
70304;BME280;57712;48.752;11.348;2022-11-22T00:22:24;95720.97;;;2.58;100.00
70304;BME280;57712;48.752;11.348;2022-11-22T00:24:51;95712.13;;;2.57;100.00
70304;BME280;57712;48.752;11.348;2022-11-22T00:27:18;95700.78;;;2.66;100.00
70304;BME280;57712;48.752;11.348;2022-11-22T00:29:45;95703.47;;;2.66;100.00
70304;BME280;57712;48.752;11.348;2022-11-22T00:32:12;95708.44;;;2.71;100.00
70304;BME280;57712;48.752;11.348;2022-11-22T00:34:39;95701.13;;;2.68;100.00
70304;BME280;57712;48.752;11.348;2022-11-22T00:37:05;95706.13;;;2.70;100.00
70304;BME280;57712;48.752;11.348;2022-11-22T00:39:32;95691.38;;;2.74;100.00
70304;BME280;57712;48.752;11.348;2022-11-22T00:41:59;95677.63;;;2.65;100.00
70304;BME280;57712;48.752;11.348;2022-11-22T00:44:25;95672.69;;;2.60;100.00
70304;BME280;57712;48.752;11.348;2022-11-22T00:46:52;95676.81;;;2.68;100.00
70304;BME280;57712;48.752;11.348;2022-11-22T00:49:19;95686.75;;;2.75;100.00
70304;BME280;57712;48.752;11.348;2022-11-22T00:51:45;95685.91;;;2.78;100.00
70304;BME280;57712;48.752;11.348;2022-11-22T00:54:11;95684.16;;;2.68;100.00
70304;BME280;57712;48.752;11.348;2022-11-22T00:56:38;95692.81;;;2.82;100.00
70304;BME280;57712;48.752;11.348;2022-11-22T00:59:04;95687.19;;;2.70;100.00
70304;BME280;57712;48.752;11.348;2022-11-22T01:01:31;95689.94;;;2.89;100.00
70304;BME280;57712;48.752;11.348;2022-11-22T01:03:58;95698.03;;;2.93;100.00
70304;BME280;57712;48.752;11.348;2022-11-22T01:06:24;95688.16;;;2.83;100.00
70304;BME280;57712;48.752;11.348;2022-11-22T01:08:51;95690.44;;;2.84;100.00
70304;BME280;57712;48.752;11.348;2022-11-22T01:11:18;95688.91;;;2.83;100.00
70304;BME280;57712;48.752;11.348;2022-11-22T01:13:44;95686.41;;;2.73;100.00
70304;BME280;57712;48.752;11.348;2022-11-22T01:16:15;95676.00;;;2.71;100.00
70304;BME280;57712;48.752;11.348;2022-11-22T01:18:42;95678.09;;;2.60;100.00
70304;BME280;57712;48.752;11.348;2022-11-22T01:21:09;95679.47;;;2.72;100.00
70304;BME280;57712;48.752;11.348;2022-11-22T01:23:36;95677.69;;;2.85;100.00
70304;BME280;57712;48.752;11.348;2022-11-22T01:26:02;95685.38;;;2.86;100.00
70304;BME280;57712;48.752;11.348;2022-11-22T01:28:31;95689.78;;;2.77;100.00
70304;BME280;57712;48.752;11.348;2022-11-22T01:30:58;95694.06;;;2.98;100.00
70304;BME280;57712;48.752;11.348;2022-11-22T01:33:24;95688.78;;;2.90;100.00
70304;BME280;57712;48.752;11.348;2022-11-22T01:35:51;95689.41;;;2.98;100.00
70304;BME280;57712;48.752;11.348;2022-11-22T01:38:17;95687.91;;;2.97;100.00
70304;BME280;57712;48.752;11.348;2022-11-22T01:40:44;95684.78;;;2.99;100.00
70304;BME280;57712;48.752;11.348;2022-11-22T01:43:16;95672.09;;;2.96;100.00
70304;BME280;57712;48.752;11.348;2022-11-22T01:45:57;95674.78;;;2.96;100.00
70304;BME280;57712;48.752;11.348;2022-11-22T01:48:45;95664.59;;;2.83;100.00
70304;BME280;57712;48.752;11.348;2022-11-22T01:53:48;95658.00;;;2.84;100.00
70304;BME280;57712;48.752;11.348;2022-11-22T01:56:16;95662.56;;;2.87;100.00
70304;BME280;57712;48.752;11.348;2022-11-22T01:58:46;95664.66;;;3.00;100.00
70304;BME280;57712;48.752;11.348;2022-11-22T02:01:14;95663.75;;;2.86;100.00
70304;BME280;57712;48.752;11.348;2022-11-22T02:03:43;95656.47;;;2.83;100.00
70304;BME280;57712;48.752;11.348;2022-11-22T02:06:12;95666.44;;;2.86;100.00
70304;BME280;57712;48.752;11.348;2022-11-22T02:08:49;95661.13;;;2.83;100.00
70304;BME280;57712;48.752;11.348;2022-11-22T02:11:19;95660.09;;;2.97;100.00
70304;BME280;57712;48.752;11.348;2022-11-22T02:13:46;95649.72;;;2.72;100.00
70304;BME280;57712;48.752;11.348;2022-11-22T02:16:13;95652.09;;;2.89;100.00
70304;BME280;57712;48.752;11.348;2022-11-22T02:18:40;95653.84;;;3.00;100.00
70304;BME280;57712;48.752;11.348;2022-11-22T02:21:07;95657.69;;;3.02;100.00
70304;BME280;57712;48.752;11.348;2022-11-22T02:23:48;95656.91;;;3.02;100.00
70304;BME280;57712;48.752;11.348;2022-11-22T02:26:19;95655.44;;;2.97;100.00
70304;BME280;57712;48.752;11.348;2022-11-22T02:28:46;95654.81;;;3.09;100.00
70304;BME280;57712;48.752;11.348;2022-11-22T02:31:50;95655.13;;;3.15;100.00
70304;BME280;57712;48.752;11.348;2022-11-22T02:34:16;95657.22;;;3.27;100.00
70304;BME280;57712;48.752;11.348;2022-11-22T02:36:48;95666.16;;;3.24;100.00
70304;BME280;57712;48.752;11.348;2022-11-22T02:39:19;95665.53;;;3.36;100.00
70304;BME280;57712;48.752;11.348;2022-11-22T02:41:46;95663.19;;;3.38;100.00
70304;BME280;57712;48.752;11.348;2022-11-22T02:44:14;95663.31;;;3.31;100.00
70304;BME280;57712;48.752;11.348;2022-11-22T02:46:46;95671.72;;;3.37;100.00
70304;BME280;57712;48.752;11.348;2022-11-22T02:49:15;95672.34;;;3.44;100.00
70304;BME280;57712;48.752;11.348;2022-11-22T02:51:42;95684.69;;;3.45;100.00
70304;BME280;57712;48.752;11.348;2022-11-22T02:54:08;95695.78;;;3.31;100.00
70304;BME280;57712;48.752;11.348;2022-11-22T02:56:34;95688.97;;;3.43;100.00
70304;BME280;57712;48.752;11.348;2022-11-22T02:59:01;95695.09;;;3.47;100.00
70304;BME280;57712;48.752;11.348;2022-11-22T03:01:28;95702.03;;;3.28;100.00
70304;BME280;57712;48.752;11.348;2022-11-22T03:03:55;95699.88;;;3.39;100.00
70304;BME280;57712;48.752;11.348;2022-11-22T03:06:22;95693.56;;;3.46;100.00
70304;BME280;57712;48.752;11.348;2022-11-22T03:08:48;95692.09;;;3.41;100.00
70304;BME280;57712;48.752;11.348;2022-11-22T03:11:21;95700.84;;;3.49;100.00
70304;BME280;57712;48.752;11.348;2022-11-22T03:13:48;95698.81;;;3.33;100.00
70304;BME280;57712;48.752;11.348;2022-11-22T03:16:14;95698.22;;;3.45;100.00
70304;BME280;57712;48.752;11.348;2022-11-22T03:18:41;95703.84;;;3.55;100.00
70304;BME280;57712;48.752;11.348;2022-11-22T03:21:08;95696.47;;;3.35;100.00
70304;BME280;57712;48.752;11.348;2022-11-22T03:23:36;95693.41;;;3.33;100.00
70304;BME280;57712;48.752;11.348;2022-11-22T03:26:09;95706.81;;;3.40;100.00
70304;BME280;57712;48.752;11.348;2022-11-22T03:28:36;95698.66;;;3.44;100.00
70304;BME280;57712;48.752;11.348;2022-11-22T03:31:06;95697.09;;;3.43;100.00
70304;BME280;57712;48.752;11.348;2022-11-22T03:33:34;95696.28;;;3.46;100.00
70304;BME280;57712;48.752;11.348;2022-11-22T03:36:01;95692.66;;;3.53;100.00
70304;BME280;57712;48.752;11.348;2022-11-22T03:38:28;95692.88;;;3.62;100.00
70304;BME280;57712;48.752;11.348;2022-11-22T03:40:55;95696.88;;;3.54;100.00
70304;BME280;57712;48.752;11.348;2022-11-22T03:43:22;95694.00;;;3.44;100.00
70304;BME280;57712;48.752;11.348;2022-11-22T03:45:48;95697.81;;;3.47;100.00
70304;BME280;57712;48.752;11.348;2022-11-22T03:48:15;95706.47;;;3.38;100.00
70304;BME280;57712;48.752;11.348;2022-11-22T03:50:41;95702.47;;;3.46;100.00
70304;BME280;57712;48.752;11.348;2022-11-22T03:53:08;95706.19;;;3.53;100.00
70304;BME280;57712;48.752;11.348;2022-11-22T03:55:34;95707.44;;;3.48;100.00
70304;BME280;57712;48.752;11.348;2022-11-22T03:58:01;95716.00;;;3.46;100.00
70304;BME280;57712;48.752;11.348;2022-11-22T04:00:28;95714.47;;;3.45;100.00
70304;BME280;57712;48.752;11.348;2022-11-22T04:02:54;95717.16;;;3.45;100.00
70304;BME280;57712;48.752;11.348;2022-11-22T04:05:21;95721.94;;;3.38;100.00
70304;BME280;57712;48.752;11.348;2022-11-22T04:07:50;95712.66;;;3.39;100.00
70304;BME280;57712;48.752;11.348;2022-11-22T04:10:22;95713.28;;;3.46;100.00
70304;BME280;57712;48.752;11.348;2022-11-22T04:12:49;95709.53;;;3.40;100.00
70304;BME280;57712;48.752;11.348;2022-11-22T04:15:16;95714.94;;;3.40;100.00
70304;BME280;57712;48.752;11.348;2022-11-22T04:17:44;95712.66;;;3.39;100.00
70304;BME280;57712;48.752;11.348;2022-11-22T04:23:05;95728.81;;;3.42;100.00
70304;BME280;57712;48.752;11.348;2022-11-22T04:25:33;95730.22;;;3.51;100.00
70304;BME280;57712;48.752;11.348;2022-11-22T04:28:00;95736.59;;;3.40;100.00
70304;BME280;57712;48.752;11.348;2022-11-22T04:30:27;95743.41;;;3.48;100.00
70304;BME280;57712;48.752;11.348;2022-11-22T04:33:14;95739.50;;;3.50;100.00
70304;BME280;57712;48.752;11.348;2022-11-22T04:35:42;95743.31;;;3.52;100.00
70304;BME280;57712;48.752;11.348;2022-11-22T04:38:10;95738.81;;;3.45;100.00
70304;BME280;57712;48.752;11.348;2022-11-22T04:40:37;95736.53;;;3.44;100.00
70304;BME280;57712;48.752;11.348;2022-11-22T04:43:05;95738.38;;;3.27;100.00
70304;BME280;57712;48.752;11.348;2022-11-22T04:45:51;95734.28;;;3.39;100.00
70304;BME280;57712;48.752;11.348;2022-11-22T04:48:17;95739.63;;;3.42;100.00
70304;BME280;57712;48.752;11.348;2022-11-22T04:50:44;95738.09;;;3.41;100.00
70304;BME280;57712;48.752;11.348;2022-11-22T04:53:29;95738.09;;;3.41;100.00
70304;BME280;57712;48.752;11.348;2022-11-22T04:55:56;95743.09;;;3.23;100.00
70304;BME280;57712;48.752;11.348;2022-11-22T04:58:23;95741.69;;;3.15;100.00
70304;BME280;57712;48.752;11.348;2022-11-22T05:00:50;95740.97;;;3.11;100.00
70304;BME280;57712;48.752;11.348;2022-11-22T05:03:17;95736.69;;;3.13;100.00
70304;BME280;57712;48.752;11.348;2022-11-22T05:05:43;95741.50;;;3.26;100.00
70304;BME280;57712;48.752;11.348;2022-11-22T05:08:11;95737.38;;;3.17;100.00
70304;BME280;57712;48.752;11.348;2022-11-22T05:10:38;95734.38;;;3.12;100.00
70304;BME280;57712;48.752;11.348;2022-11-22T05:15:52;95740.03;;;3.21;100.00
70304;BME280;57712;48.752;11.348;2022-11-22T05:18:20;95736.97;;;3.19;100.00
70304;BME280;57712;48.752;11.348;2022-11-22T05:20:47;95738.25;;;3.11;100.00
70304;BME280;57712;48.752;11.348;2022-11-22T05:23:14;95747.03;;;3.18;100.00
70304;BME280;57712;48.752;11.348;2022-11-22T05:25:59;95749.81;;;3.15;100.00
70304;BME280;57712;48.752;11.348;2022-11-22T05:28:27;95748.50;;;3.23;100.00
70304;BME280;57712;48.752;11.348;2022-11-22T05:30:55;95749.66;;;3.22;100.00
70304;BME280;57712;48.752;11.348;2022-11-22T05:33:21;95746.34;;;3.14;100.00
70304;BME280;57712;48.752;11.348;2022-11-22T05:35:48;95757.50;;;3.16;100.00
70304;BME280;57712;48.752;11.348;2022-11-22T05:38:15;95761.72;;;3.17;100.00
70304;BME280;57712;48.752;11.348;2022-11-22T05:40:41;95758.22;;;2.97;100.00
70304;BME280;57712;48.752;11.348;2022-11-22T05:43:08;95765.69;;;3.13;100.00
70304;BME280;57712;48.752;11.348;2022-11-22T05:45:34;95757.69;;;3.06;100.00
70304;BME280;57712;48.752;11.348;2022-11-22T05:48:01;95760.38;;;3.06;100.00
70304;BME280;57712;48.752;11.348;2022-11-22T05:50:27;95768.09;;;3.07;100.00
70304;BME280;57712;48.752;11.348;2022-11-22T05:52:54;95752.63;;;3.08;100.00
70304;BME280;57712;48.752;11.348;2022-11-22T05:55:25;95760.38;;;3.06;100.00
70304;BME280;57712;48.752;11.348;2022-11-22T05:57:51;95758.03;;;3.08;100.00
70304;BME280;57712;48.752;11.348;2022-11-22T06:00:18;95774.25;;;3.08;100.00
70304;BME280;57712;48.752;11.348;2022-11-22T06:02:44;95768.84;;;3.08;100.00
70304;BME280;57712;48.752;11.348;2022-11-22T06:05:11;95773.56;;;3.04;100.00
70304;BME280;57712;48.752;11.348;2022-11-22T06:07:37;95774.84;;;2.96;100.00
70304;BME280;57712;48.752;11.348;2022-11-22T06:10:04;95778.25;;;3.00;100.00
70304;BME280;57712;48.752;11.348;2022-11-22T06:12:30;95774.84;;;2.96;100.00
70304;BME280;57712;48.752;11.348;2022-11-22T06:14:57;95788.38;;;2.96;100.00
70304;BME280;57712;48.752;11.348;2022-11-22T06:17:23;95790.31;;;2.95;100.00
70304;BME280;57712;48.752;11.348;2022-11-22T06:19:49;95782.63;;;2.94;100.00
70304;BME280;57712;48.752;11.348;2022-11-22T06:22:16;95783.47;;;2.87;100.00
70304;BME280;57712;48.752;11.348;2022-11-22T06:24:42;95787.59;;;2.95;100.00
70304;BME280;57712;48.752;11.348;2022-11-22T06:27:09;95793.84;;;2.92;100.00
70304;BME280;57712;48.752;11.348;2022-11-22T06:29:35;95784.91;;;2.95;100.00
70304;BME280;57712;48.752;11.348;2022-11-22T06:32:01;95789.06;;;3.00;100.00
70304;BME280;57712;48.752;11.348;2022-11-22T06:34:29;95789.91;;;2.97;100.00
70304;BME280;57712;48.752;11.348;2022-11-22T06:36:55;95793.28;;;3.01;100.00
70304;BME280;57712;48.752;11.348;2022-11-22T06:39:22;95794.06;;;3.01;100.00
70304;BME280;57712;48.752;11.348;2022-11-22T06:41:49;95796.47;;;2.96;100.00
70304;BME280;57712;48.752;11.348;2022-11-22T06:44:15;95798.34;;;2.99;100.00
70304;BME280;57712;48.752;11.348;2022-11-22T06:46:41;95792.91;;;3.02;100.00
70304;BME280;57712;48.752;11.348;2022-11-22T06:49:08;95804.13;;;3.01;100.00
70304;BME280;57712;48.752;11.348;2022-11-22T06:51:34;95806.03;;;3.04;100.00
70304;BME280;57712;48.752;11.348;2022-11-22T06:54:01;95812.97;;;3.05;100.00
70304;BME280;57712;48.752;11.348;2022-11-22T06:56:30;95821.31;;;3.14;100.00
70304;BME280;57712;48.752;11.348;2022-11-22T06:58:59;95818.88;;;3.19;100.00
70304;BME280;57712;48.752;11.348;2022-11-22T07:01:27;95828.84;;;3.26;100.00
70304;BME280;57712;48.752;11.348;2022-11-22T07:03:56;95833.50;;;3.26;100.00
70304;BME280;57712;48.752;11.348;2022-11-22T07:06:28;95834.25;;;3.26;100.00
70304;BME280;57712;48.752;11.348;2022-11-22T07:08:55;95839.53;;;3.33;100.00
70304;BME280;57712;48.752;11.348;2022-11-22T07:11:24;95847.25;;;3.35;100.00
70304;BME280;57712;48.752;11.348;2022-11-22T07:13:51;95844.00;;;3.43;100.00
70304;BME280;57712;48.752;11.348;2022-11-22T07:16:20;95859.88;;;3.41;100.00
70304;BME280;57712;48.752;11.348;2022-11-22T07:18:47;95856.31;;;3.48;100.00
70304;BME280;57712;48.752;11.348;2022-11-22T07:21:17;95863.19;;;3.53;100.00
70304;BME280;57712;48.752;11.348;2022-11-22T07:23:45;95875.53;;;3.54;100.00
70304;BME280;57712;48.752;11.348;2022-11-22T07:26:13;95878.25;;;3.54;100.00
70304;BME280;57712;48.752;11.348;2022-11-22T07:28:40;95887.78;;;3.62;100.00
70304;BME280;57712;48.752;11.348;2022-11-22T07:31:09;95891.56;;;3.68;100.00
70304;BME280;57712;48.752;11.348;2022-11-22T07:33:36;95891.41;;;3.75;100.00
70304;BME280;57712;48.752;11.348;2022-11-22T07:36:21;95894.13;;;3.75;100.00
70304;BME280;57712;48.752;11.348;2022-11-22T07:38:48;95895.31;;;3.74;100.00
70304;BME280;57712;48.752;11.348;2022-11-22T07:41:17;95895.03;;;3.68;100.00
70304;BME280;57712;48.752;11.348;2022-11-22T07:43:44;95907.72;;;3.71;100.00
70304;BME280;57712;48.752;11.348;2022-11-22T07:46:25;95898.66;;;3.82;100.00
70304;BME280;57712;48.752;11.348;2022-11-22T07:48:56;95909.25;;;3.72;100.00
70304;BME280;57712;48.752;11.348;2022-11-22T07:51:24;95906.13;;;3.74;100.00
70304;BME280;57712;48.752;11.348;2022-11-22T07:53:50;95913.06;;;3.75;100.00
70304;BME280;57712;48.752;11.348;2022-11-22T07:56:17;95904.38;;;3.87;100.00
70304;BME280;57712;48.752;11.348;2022-11-22T07:58:44;95898.22;;;4.07;100.00
70304;BME280;57712;48.752;11.348;2022-11-22T08:01:17;95898.81;;;4.18;100.00
70304;BME280;57712;48.752;11.348;2022-11-22T08:03:44;95897.69;;;4.35;100.00
70304;BME280;57712;48.752;11.348;2022-11-22T08:06:11;95894.97;;;4.35;100.00
70304;BME280;57712;48.752;11.348;2022-11-22T08:08:38;95890.47;;;4.28;100.00
70304;BME280;57712;48.752;11.348;2022-11-22T08:11:05;95899.97;;;4.56;100.00
70304;BME280;57712;48.752;11.348;2022-11-22T08:13:32;95899.81;;;4.63;100.00
70304;BME280;57712;48.752;11.348;2022-11-22T08:16:04;95893.09;;;4.88;100.00
70304;BME280;57712;48.752;11.348;2022-11-22T08:18:32;95900.50;;;4.68;100.00
70304;BME280;57712;48.752;11.348;2022-11-22T08:21:06;95901.88;;;4.76;100.00
70304;BME280;57712;48.752;11.348;2022-11-22T08:23:34;95895.34;;;5.09;100.00
70304;BME280;57712;48.752;11.348;2022-11-22T08:26:00;95901.84;;;5.32;100.00
70304;BME280;57712;48.752;11.348;2022-11-22T08:28:27;95916.75;;;5.40;100.00
70304;BME280;57712;48.752;11.348;2022-11-22T08:31:10;95911.78;;;5.55;100.00
70304;BME280;57712;48.752;11.348;2022-11-22T08:33:38;95916.84;;;5.36;100.00
70304;BME280;57712;48.752;11.348;2022-11-22T08:36:05;95918.66;;;5.43;100.00
70304;BME280;57712;48.752;11.348;2022-11-22T08:38:32;95914.38;;;5.58;100.00
70304;BME280;57712;48.752;11.348;2022-11-22T08:40:58;95923.75;;;5.73;100.00
70304;BME280;57712;48.752;11.348;2022-11-22T08:43:24;95925.78;;;5.53;100.00
70304;BME280;57712;48.752;11.348;2022-11-22T08:45:56;95927.13;;;5.77;100.00
70304;BME280;57712;48.752;11.348;2022-11-22T08:48:24;95927.72;;;5.53;100.00
70304;BME280;57712;48.752;11.348;2022-11-22T08:50:52;95928.22;;;5.80;100.00
70304;BME280;57712;48.752;11.348;2022-11-22T08:53:20;95936.69;;;5.49;100.00
70304;BME280;57712;48.752;11.348;2022-11-22T08:55:46;95938.66;;;5.49;100.00
70304;BME280;57712;48.752;11.348;2022-11-22T08:58:13;95945.81;;;5.75;100.00
70304;BME280;57712;48.752;11.348;2022-11-22T09:00:39;95941.28;;;5.69;100.00
70304;BME280;57712;48.752;11.348;2022-11-22T09:03:06;95934.41;;;5.80;100.00
70304;BME280;57712;48.752;11.348;2022-11-22T09:05:32;95941.91;;;5.93;100.00
70304;BME280;57712;48.752;11.348;2022-11-22T09:07:59;95945.75;;;6.24;100.00
70304;BME280;57712;48.752;11.348;2022-11-22T09:10:46;95948.41;;;6.28;100.00
70304;BME280;57712;48.752;11.348;2022-11-22T09:13:13;95944.34;;;6.49;100.00
70304;BME280;57712;48.752;11.348;2022-11-22T09:15:39;95941.31;;;6.47;100.00
70304;BME280;57712;48.752;11.348;2022-11-22T09:18:05;95942.63;;;6.55;100.00
70304;BME280;57712;48.752;11.348;2022-11-22T09:20:32;95950.19;;;6.76;100.00
70304;BME280;57712;48.752;11.348;2022-11-22T09:23:00;95945.09;;;6.78;100.00
70304;BME280;57712;48.752;11.348;2022-11-22T09:25:26;95953.63;;;6.93;100.00
70304;BME280;57712;48.752;11.348;2022-11-22T09:27:53;95945.13;;;7.04;100.00
70304;BME280;57712;48.752;11.348;2022-11-22T09:30:19;95954.38;;;6.93;100.00
70304;BME280;57712;48.752;11.348;2022-11-22T09:32:47;95965.56;;;6.83;100.00
70304;BME280;57712;48.752;11.348;2022-11-22T09:35:13;95965.25;;;6.81;100.00
70304;BME280;57712;48.752;11.348;2022-11-22T09:37:42;95962.66;;;6.90;100.00
70304;BME280;57712;48.752;11.348;2022-11-22T09:40:09;95961.91;;;7.15;100.00
70304;BME280;57712;48.752;11.348;2022-11-22T09:42:46;95961.78;;;7.06;100.00
70304;BME280;57712;48.752;11.348;2022-11-22T09:48:39;95969.91;;;7.35;100.00
70304;BME280;57712;48.752;11.348;2022-11-22T09:51:16;95967.03;;;7.00;100.00
70304;BME280;57712;48.752;11.348;2022-11-22T09:54:00;95970.97;;;7.12;100.00
70304;BME280;57712;48.752;11.348;2022-11-22T09:56:34;95974.25;;;7.32;100.00
70304;BME280;57712;48.752;11.348;2022-11-22T09:59:09;95986.34;;;7.31;100.00
70304;BME280;57712;48.752;11.348;2022-11-22T10:01:49;95986.03;;;7.42;100.00
70304;BME280;57712;48.752;11.348;2022-11-22T10:04:27;95992.13;;;7.46;100.00
70304;BME280;57712;48.752;11.348;2022-11-22T10:07:00;95992.56;;;7.32;100.00
70304;BME280;57712;48.752;11.348;2022-11-22T10:18:01;96004.66;;;7.43;100.00
70304;BME280;57712;48.752;11.348;2022-11-22T10:20:36;96014.69;;;7.46;100.00
70304;BME280;57712;48.752;11.348;2022-11-22T10:23:16;96012.38;;;7.19;100.00
70304;BME280;57712;48.752;11.348;2022-11-22T10:25:53;96016.44;;;7.40;100.00
70304;BME280;57712;48.752;11.348;2022-11-22T10:31:17;96017.91;;;7.16;100.00
70304;BME280;57712;48.752;11.348;2022-11-22T10:36:57;96016.38;;;7.15;100.00
70304;BME280;57712;48.752;11.348;2022-11-22T10:45:16;96016.63;;;7.33;100.00
70304;BME280;57712;48.752;11.348;2022-11-22T10:48:11;96010.50;;;7.29;100.00
70304;BME280;57712;48.752;11.348;2022-11-22T10:56:10;96033.56;;;7.41;100.00
70304;BME280;57712;48.752;11.348;2022-11-22T11:01:39;96022.09;;;7.59;100.00
70304;BME280;57712;48.752;11.348;2022-11-22T11:04:10;96029.06;;;7.60;100.00
70304;BME280;57712;48.752;11.348;2022-11-22T11:06:50;96021.25;;;7.62;100.00
70304;BME280;57712;48.752;11.348;2022-11-22T11:09:46;96030.19;;;7.75;100.00
70304;BME280;57712;48.752;11.348;2022-11-22T11:12:44;96019.50;;;7.68;100.00
70304;BME280;57712;48.752;11.348;2022-11-22T11:15:22;96011.44;;;7.77;100.00
70304;BME280;57712;48.752;11.348;2022-11-22T11:17:58;96014.25;;;7.86;100.00
70304;BME280;57712;48.752;11.348;2022-11-22T11:20:30;96011.63;;;7.44;100.00
70304;BME280;57712;48.752;11.348;2022-11-22T11:22:58;96006.72;;;7.27;100.00
70304;BME280;57712;48.752;11.348;2022-11-22T11:25:42;96004.56;;;7.47;100.00
70304;BME280;57712;48.752;11.348;2022-11-22T11:31:07;95981.56;;;7.61;100.00
70304;BME280;57712;48.752;11.348;2022-11-22T11:33:36;95990.06;;;7.50;100.00
70304;BME280;57712;48.752;11.348;2022-11-22T11:43:42;95975.34;;;7.86;100.00
70304;BME280;57712;48.752;11.348;2022-11-22T11:46:21;95973.84;;;7.72;100.00
70304;BME280;57712;48.752;11.348;2022-11-22T11:48:49;95966.75;;;7.62;100.00
70304;BME280;57712;48.752;11.348;2022-11-22T11:51:39;95964.78;;;7.75;100.00
70304;BME280;57712;48.752;11.348;2022-11-22T11:54:14;95964.72;;;8.00;100.00
70304;BME280;57712;48.752;11.348;2022-11-22T11:56:46;95973.16;;;7.93;100.00
70304;BME280;57712;48.752;11.348;2022-11-22T11:59:16;95962.84;;;8.10;100.00
70304;BME280;57712;48.752;11.348;2022-11-22T12:01:49;95964.59;;;8.17;100.00
70304;BME280;57712;48.752;11.348;2022-11-22T12:04:25;95961.16;;;8.03;100.00
70304;BME280;57712;48.752;11.348;2022-11-22T12:07:01;95959.47;;;8.19;100.00
70304;BME280;57712;48.752;11.348;2022-11-22T12:09:32;95967.91;;;7.99;100.00
70304;BME280;57712;48.752;11.348;2022-11-22T12:12:10;95963.63;;;8.10;100.00
70304;BME280;57712;48.752;11.348;2022-11-22T12:14:40;95965.03;;;8.15;100.00
70304;BME280;57712;48.752;11.348;2022-11-22T12:17:34;95955.06;;;8.34;100.00
70304;BME280;57712;48.752;11.348;2022-11-22T12:20:06;95960.34;;;8.16;100.00
70304;BME280;57712;48.752;11.348;2022-11-22T12:23:05;95955.72;;;8.38;100.00
70304;BME280;57712;48.752;11.348;2022-11-22T12:25:38;95954.06;;;8.41;100.00
70304;BME280;57712;48.752;11.348;2022-11-22T12:28:20;95964.38;;;8.58;100.00
70304;BME280;57712;48.752;11.348;2022-11-22T12:31:29;95960.63;;;8.30;100.00
70304;BME280;57712;48.752;11.348;2022-11-22T12:33:59;95959.69;;;8.11;100.00
70304;BME280;57712;48.752;11.348;2022-11-22T12:36:46;95960.38;;;8.03;100.00
70304;BME280;57712;48.752;11.348;2022-11-22T12:39:18;95957.63;;;8.16;100.00
70304;BME280;57712;48.752;11.348;2022-11-22T12:41:49;95957.00;;;7.99;100.00
70304;BME280;57712;48.752;11.348;2022-11-22T12:44:19;95958.84;;;7.89;100.00
70304;BME280;57712;48.752;11.348;2022-11-22T12:46:53;95961.84;;;7.82;100.00
70304;BME280;57712;48.752;11.348;2022-11-22T12:49:36;95958.34;;;7.81;100.00
70304;BME280;57712;48.752;11.348;2022-11-22T12:57:23;95949.06;;;7.79;100.00
70304;BME280;57712;48.752;11.348;2022-11-22T13:00:13;95955.19;;;7.83;100.00
70304;BME280;57712;48.752;11.348;2022-11-22T13:02:56;95963.47;;;7.92;100.00
70304;BME280;57712;48.752;11.348;2022-11-22T13:05:33;95954.50;;;7.92;100.00
70304;BME280;57712;48.752;11.348;2022-11-22T13:08:12;95960.16;;;7.97;100.00
70304;BME280;57712;48.752;11.348;2022-11-22T13:13:32;95954.06;;;7.93;100.00
70304;BME280;57712;48.752;11.348;2022-11-22T13:16:02;95946.97;;;7.96;100.00
70304;BME280;57712;48.752;11.348;2022-11-22T13:18:33;95952.09;;;7.81;100.00
70304;BME280;57712;48.752;11.348;2022-11-22T13:21:15;95946.53;;;7.97;100.00
70304;BME280;57712;48.752;11.348;2022-11-22T13:24:01;95942.69;;;8.07;100.00
70304;BME280;57712;48.752;11.348;2022-11-22T13:29:19;95936.50;;;8.29;100.00
70304;BME280;57712;48.752;11.348;2022-11-22T13:32:16;95942.72;;;8.29;100.00
70304;BME280;57712;48.752;11.348;2022-11-22T13:35:05;95947.97;;;8.36;100.00
70304;BME280;57712;48.752;11.348;2022-11-22T13:37:38;95938.63;;;8.12;100.00
70304;BME280;57712;48.752;11.348;2022-11-22T13:40:10;95946.78;;;8.37;100.00
70304;BME280;57712;48.752;11.348;2022-11-22T13:42:45;95942.59;;;8.33;100.00
70304;BME280;57712;48.752;11.348;2022-11-22T13:45:24;95947.22;;;8.36;100.00
70304;BME280;57712;48.752;11.348;2022-11-22T13:47:51;95937.06;;;8.36;100.00
70304;BME280;57712;48.752;11.348;2022-11-22T13:55:46;95946.63;;;8.06;100.00
70304;BME280;57712;48.752;11.348;2022-11-22T14:00:50;95952.97;;;8.03;100.00
70304;BME280;57712;48.752;11.348;2022-11-22T14:03:23;95950.03;;;7.98;100.00
70304;BME280;57712;48.752;11.348;2022-11-22T14:05:56;95949.88;;;8.01;100.00
70304;BME280;57712;48.752;11.348;2022-11-22T14:16:28;95951.75;;;8.04;100.00
70304;BME280;57712;48.752;11.348;2022-11-22T14:27:30;95958.84;;;7.89;100.00
70304;BME280;57712;48.752;11.348;2022-11-22T14:30:35;95969.75;;;7.89;100.00
70304;BME280;57712;48.752;11.348;2022-11-22T14:33:04;95969.13;;;7.85;100.00